createdAt,value
2023-04-08T00:03:50.410Z,26.37
2023-04-08T00:08:55.512Z,29.48
2023-04-08T00:13:59.270Z,27.98
2023-04-08T00:19:03.054Z,28.08
2023-04-08T00:24:08.316Z,27.33
2023-04-08T00:29:12.048Z,28.23
2023-04-08T00:34:16.401Z,26.17
2023-04-08T00:39:21.557Z,28.67
2023-04-08T00:44:25.375Z,28.75
2023-04-08T00:49:29.213Z,29.58
2023-04-08T00:54:34.381Z,29.12
2023-04-08T00:59:38.709Z,27.75
2023-04-08T01:04:53.920Z,29.23
2023-04-08T01:10:03.975Z,27.77
2023-04-08T01:15:09.904Z,30.33
2023-04-08T01:20:16.673Z,30.08
2023-04-08T01:25:24.762Z,29.58
2023-04-08T01:30:31.503Z,30.92
2023-04-08T01:35:36.646Z,30.58
2023-04-08T01:40:42.124Z,28.55
2023-04-08T01:45:49.110Z,28.85
2023-04-08T01:50:54.059Z,29.05
2023-04-08T01:56:02.706Z,35.25
2023-04-08T02:01:12.461Z,39.45
2023-04-08T02:06:16.391Z,34.22
2023-04-08T02:11:21.288Z,31.65
2023-04-08T02:16:34.900Z,34.47
2023-04-08T02:21:44.212Z,33.30
2023-04-08T02:26:50.545Z,32.42
2023-04-08T02:31:56.600Z,34.13
2023-04-08T02:37:00.569Z,31.50
2023-04-08T02:42:05.627Z,30.95
2023-04-08T02:47:10.741Z,30.85
2023-04-08T02:52:14.505Z,32.13
2023-04-08T02:57:18.537Z,29.15
2023-04-08T03:02:23.662Z,32.28
2023-04-08T03:07:27.493Z,34.00
2023-04-08T03:12:31.762Z,31.77
2023-04-08T03:17:36.787Z,34.67
2023-04-08T03:22:40.507Z,34.50
2023-04-08T03:27:44.175Z,34.33
2023-04-08T03:32:49.453Z,32.33
2023-04-08T03:37:54.552Z,34.25
2023-04-08T03:42:58.324Z,32.88
2023-04-08T03:48:03.401Z,36.90
2023-04-08T03:53:07.133Z,37.10
2023-04-08T03:58:10.875Z,34.80
2023-04-08T04:03:16.154Z,40.80
2023-04-08T04:08:19.957Z,37.17
2023-04-08T04:13:23.644Z,37.67
2023-04-08T04:18:28.730Z,37.83
2023-04-08T04:23:32.557Z,39.05
2023-04-08T04:28:36.279Z,39.20
2023-04-08T04:33:41.323Z,40.25
2023-04-08T04:38:45.481Z,37.72
2023-04-08T04:43:49.181Z,37.50
2023-04-08T04:48:54.228Z,38.33
2023-04-08T04:53:57.972Z,40.85
2023-04-08T04:59:01.648Z,37.42
2023-04-08T05:04:06.754Z,41.17
2023-04-08T05:09:10.465Z,37.88
2023-04-08T05:14:14.268Z,47.88
2023-04-08T05:19:19.332Z,42.42
2023-04-08T05:24:23.075Z,43.22
2023-04-08T05:29:27.911Z,42.83
2023-04-08T05:34:33.895Z,35.72
2023-04-08T05:39:37.732Z,36.00
2023-04-08T05:44:43.903Z,37.58
2023-04-08T05:49:50.216Z,36.80
2023-04-08T05:54:55.002Z,33.40
2023-04-08T05:59:58.920Z,31.00
2023-04-08T06:05:04.819Z,31.40
2023-04-08T06:10:09.917Z,28.67
2023-04-08T06:15:13.824Z,25.27
2023-04-08T06:20:18.972Z,25.23
2023-04-08T06:25:23.083Z,25.95
2023-04-08T06:30:26.834Z,25.70
2023-04-08T06:35:32.599Z,26.67
2023-04-08T06:40:36.524Z,26.27
2023-04-08T06:45:40.331Z,20.23
2023-04-08T06:50:45.547Z,20.23
2023-04-08T06:55:49.269Z,21.05
2023-04-08T07:00:55.356Z,23.12
2023-04-08T07:06:00.425Z,24.65
2023-04-08T07:11:04.248Z,23.30
2023-04-08T07:16:08.295Z,22.08
2023-04-08T07:21:13.353Z,22.75
2023-04-08T07:26:17.144Z,23.52
2023-04-08T07:31:21.031Z,27.00
2023-04-08T07:36:26.506Z,27.60
2023-04-08T07:41:30.268Z,28.23
2023-04-08T07:46:38.232Z,27.20
2023-04-08T07:51:43.384Z,25.05
2023-04-08T07:56:47.183Z,23.98
2023-04-08T08:01:51.322Z,26.83
2023-04-08T08:06:56.566Z,27.20
2023-04-08T08:12:00.369Z,26.40
2023-04-08T08:17:04.987Z,27.62
2023-04-08T08:22:10.026Z,26.55
2023-04-08T08:27:13.870Z,23.12
2023-04-08T08:32:17.781Z,24.15
2023-04-08T08:37:22.857Z,26.20
2023-04-08T08:42:27.502Z,27.42
2023-04-08T08:47:32.390Z,29.02
2023-04-08T08:52:37.622Z,30.67
2023-04-08T08:57:41.433Z,28.98
2023-04-08T09:02:45.776Z,26.95
2023-04-08T09:07:51.100Z,24.73
2023-04-08T09:12:56.733Z,25.83
2023-04-08T09:18:00.541Z,27.27
2023-04-08T09:23:05.710Z,26.25
2023-04-08T09:28:21.090Z,23.67
2023-04-08T09:33:31.817Z,25.30
2023-04-08T09:38:37.037Z,23.48
2023-04-08T09:43:44.075Z,26.23
2023-04-08T09:48:54.566Z,26.35
2023-04-08T09:54:03.747Z,24.63
2023-04-08T09:59:12.999Z,24.92
2023-04-08T10:04:21.012Z,23.83
2023-04-08T10:09:28.424Z,24.60
2023-04-08T10:14:32.645Z,24.20
2023-04-08T10:19:41.697Z,23.65
2023-04-08T10:25:23.789Z,25.20
2023-04-08T10:30:43.896Z,24.63
2023-04-08T10:35:50.133Z,25.10
2023-04-08T10:40:55.790Z,23.80
2023-04-08T10:45:59.739Z,23.02
2023-04-08T10:51:05.156Z,22.45
2023-04-08T10:56:13.318Z,21.25
2023-04-08T11:01:17.489Z,21.67
2023-04-08T11:06:22.108Z,22.80
2023-04-08T11:11:29.511Z,20.40
2023-04-08T11:16:33.759Z,20.10
2023-04-08T11:21:38.690Z,18.37
2023-04-08T11:26:44.342Z,17.80
2023-04-08T11:31:49.619Z,15.52
2023-04-08T11:36:53.746Z,14.87
2023-04-08T11:41:58.908Z,15.40
2023-04-08T11:47:03.069Z,14.85
2023-04-08T11:52:07.548Z,16.08
2023-04-08T11:57:12.892Z,14.68
2023-04-08T12:02:17.205Z,15.23
2023-04-08T12:07:21.501Z,14.65
2023-04-08T12:12:26.693Z,14.52
2023-04-08T12:17:30.730Z,14.20
2023-04-08T12:22:34.516Z,14.32
2023-04-08T12:27:39.649Z,13.95
2023-04-08T12:32:45.877Z,12.10
2023-04-08T12:37:49.731Z,10.63
2023-04-08T12:42:54.832Z,11.23
2023-04-08T12:47:58.583Z,10.93
2023-04-08T12:53:02.372Z,10.95
2023-04-08T12:58:07.499Z,10.27
2023-04-08T13:03:11.262Z,9.80
2023-04-08T13:08:16.078Z,8.90
2023-04-08T13:13:21.188Z,9.98
2023-04-08T13:18:25.077Z,8.85
2023-04-08T13:23:28.819Z,8.85
2023-04-08T13:28:38.672Z,8.88
2023-04-08T13:33:47.527Z,8.80
2023-04-08T13:38:52.068Z,8.07
2023-04-08T13:43:57.619Z,7.85
2023-04-08T13:49:01.443Z,8.82
2023-04-08T13:54:05.222Z,8.85
2023-04-08T13:59:10.717Z,9.60
2023-04-08T14:04:14.489Z,9.32
2023-04-08T14:09:18.598Z,10.45
2023-04-08T14:14:23.727Z,9.45
2023-04-08T14:19:27.582Z,7.68
2023-04-08T14:24:31.292Z,8.70
2023-04-08T14:29:36.687Z,10.40
2023-04-08T14:34:40.426Z,8.55
2023-04-08T14:39:44.158Z,9.55
2023-04-08T14:44:49.298Z,9.82
2023-04-08T14:49:52.963Z,10.40
2023-04-08T14:54:56.751Z,9.68
2023-04-08T15:00:01.910Z,10.25
2023-04-08T15:05:06.347Z,10.75
2023-04-08T15:10:10.896Z,10.25
2023-04-08T15:15:16.220Z,10.10
2023-04-08T15:20:20.226Z,9.30
2023-04-08T15:25:24.135Z,9.55
2023-04-08T15:30:35.030Z,9.05
2023-04-08T15:35:39.383Z,9.57
2023-04-08T15:40:44.700Z,8.75
2023-04-08T15:45:50.611Z,9.13
2023-04-08T15:50:54.453Z,8.85
2023-04-08T15:55:58.330Z,8.60
2023-04-08T16:01:03.450Z,8.27
2023-04-08T16:06:07.287Z,7.72
2023-04-08T16:11:11.445Z,7.85
2023-04-08T16:16:16.550Z,8.13
2023-04-08T16:21:20.475Z,8.68
2023-04-08T16:26:27.386Z,8.60
2023-04-08T16:31:32.822Z,8.47
2023-04-08T16:36:36.817Z,8.70
2023-04-08T16:41:40.554Z,7.53
2023-04-08T16:46:45.783Z,12.05
2023-04-08T16:51:49.793Z,9.00
2023-04-08T16:56:53.594Z,8.55
2023-04-08T17:01:58.671Z,8.43
2023-04-08T17:07:03.357Z,8.68
2023-04-08T17:12:07.121Z,8.52
2023-04-08T17:17:12.211Z,7.62
2023-04-08T17:22:16.395Z,8.45
2023-04-08T17:27:20.197Z,9.13
2023-04-08T17:32:25.772Z,8.63
2023-04-08T17:37:29.487Z,8.18
2023-04-08T17:42:33.178Z,8.93
2023-04-08T17:47:38.258Z,8.90
2023-04-08T17:52:43.965Z,8.93
2023-04-08T17:57:49.674Z,9.02
2023-04-08T18:02:54.830Z,8.68
2023-04-08T18:07:59.328Z,8.00
2023-04-08T18:18:11.106Z,8.43
2023-04-08T18:23:14.864Z,8.05
2023-04-08T18:28:18.604Z,8.75
2023-04-08T18:33:23.640Z,8.93
2023-04-08T18:38:27.408Z,8.35
2023-04-08T18:43:31.170Z,8.35
2023-04-08T18:48:36.276Z,8.27
2023-04-08T18:53:40.065Z,8.40
2023-04-08T18:58:44.553Z,8.63
2023-04-08T19:03:50.026Z,8.30
2023-04-08T19:08:54.006Z,9.30
2023-04-08T19:13:57.918Z,9.30
2023-04-08T19:19:03.229Z,9.63
2023-04-08T19:24:07.109Z,10.40
2023-04-08T19:29:11.935Z,10.15
2023-04-08T19:34:17.019Z,10.10
2023-04-08T19:39:21.029Z,10.73
2023-04-08T19:44:24.689Z,11.05
2023-04-08T19:49:29.719Z,10.73
2023-04-08T19:54:33.467Z,11.85
2023-04-08T19:59:37.305Z,12.68
2023-04-08T20:04:42.561Z,12.65
2023-04-08T20:09:46.458Z,13.38
2023-04-08T20:14:50.257Z,13.68
2023-04-08T20:19:55.671Z,13.20
2023-04-08T20:25:00.229Z,13.25
2023-04-08T20:30:04.300Z,13.50
2023-04-08T20:35:09.812Z,12.40
2023-04-08T20:40:14.687Z,13.65
2023-04-08T20:45:19.259Z,12.32
2023-04-08T20:50:24.660Z,12.35
2023-04-08T20:55:28.417Z,13.62
2023-04-08T21:00:32.253Z,13.95
2023-04-08T21:05:39.070Z,14.15
2023-04-08T21:10:43.071Z,13.98
2023-04-08T21:15:46.965Z,14.10
2023-04-08T21:20:52.040Z,13.82
2023-04-08T21:25:56.004Z,14.15
2023-04-08T21:31:08.699Z,13.82
2023-04-08T21:36:14.029Z,13.77
2023-04-08T21:41:18.183Z,14.75
2023-04-08T21:46:22.036Z,15.57
2023-04-08T21:51:27.553Z,15.32
2023-04-08T21:56:31.304Z,14.73
2023-04-08T22:01:35.116Z,15.25
2023-04-08T22:06:41.038Z,16.60
2023-04-08T22:11:44.751Z,16.95
2023-04-08T22:16:48.477Z,15.88
2023-04-08T22:21:53.717Z,16.73
2023-04-08T22:26:57.524Z,16.87
2023-04-08T22:32:01.414Z,17.92
2023-04-08T22:37:06.598Z,18.33
2023-04-08T22:42:10.398Z,17.52
2023-04-08T22:47:14.156Z,17.73
2023-04-08T22:52:19.236Z,18.23
2023-04-08T22:57:23.042Z,17.23
2023-04-08T23:02:26.938Z,16.90
2023-04-08T23:07:32.060Z,16.17
2023-04-08T23:12:35.914Z,16.92
2023-04-08T23:17:39.661Z,16.92
2023-04-08T23:22:44.747Z,16.92
2023-04-08T23:27:48.484Z,16.37
2023-04-08T23:32:52.269Z,15.70
2023-04-08T23:37:57.541Z,17.33
2023-04-08T23:43:01.248Z,17.30
2023-04-08T23:48:07.806Z,16.75
2023-04-08T23:58:18.125Z,17.27
